sensor_id;sensor_type;location;lat;lon;timestamp;pressure;altitude;pressure_sealevel;temperature;humidity
23118;BME280;11728;50.624;6.014;2022-08-30T00:05:11;98624.09;;;16.59;60.60
23118;BME280;11728;50.624;6.014;2022-08-30T00:10:46;98633.25;;;16.52;60.66
23118;BME280;11728;50.624;6.014;2022-08-30T00:23:45;98632.28;;;16.33;61.18
23118;BME280;11728;50.624;6.014;2022-08-30T00:30:03;98634.47;;;16.22;61.78
23118;BME280;11728;50.624;6.014;2022-08-30T00:36:24;98634.22;;;16.07;62.86
23118;BME280;11728;50.624;6.014;2022-08-30T00:48:59;98630.31;;;15.92;63.26
23118;BME280;11728;50.624;6.014;2022-08-30T00:54:53;98624.47;;;15.83;63.80
23118;BME280;11728;50.624;6.014;2022-08-30T01:00:39;98633.66;;;15.74;63.90
23118;BME280;11728;50.624;6.014;2022-08-30T01:05:40;98631.25;;;15.68;64.26
23118;BME280;11728;50.624;6.014;2022-08-30T01:10:42;98633.31;;;15.60;64.87
23118;BME280;11728;50.624;6.014;2022-08-30T01:15:43;98625.63;;;15.53;65.37
23118;BME280;11728;50.624;6.014;2022-08-30T01:21:14;98623.22;;;15.45;65.89
23118;BME280;11728;50.624;6.014;2022-08-30T01:26:16;98615.72;;;15.34;66.48
23118;BME280;11728;50.624;6.014;2022-08-30T01:31:17;98620.22;;;15.32;66.92
23118;BME280;11728;50.624;6.014;2022-08-30T01:36:18;98628.16;;;15.33;67.19
23118;BME280;11728;50.624;6.014;2022-08-30T01:41:27;98623.69;;;15.34;67.24
23118;BME280;11728;50.624;6.014;2022-08-30T01:46:33;98617.63;;;15.30;67.17
23118;BME280;11728;50.624;6.014;2022-08-30T01:51:35;98621.34;;;15.25;67.57
23118;BME280;11728;50.624;6.014;2022-08-30T01:56:37;98625.81;;;15.24;67.61
23118;BME280;11728;50.624;6.014;2022-08-30T02:01:37;98633.59;;;15.30;67.64
23118;BME280;11728;50.624;6.014;2022-08-30T02:06:39;98617.44;;;15.35;67.35
23118;BME280;11728;50.624;6.014;2022-08-30T02:11:39;98616.75;;;15.30;67.49
23118;BME280;11728;50.624;6.014;2022-08-30T02:16:40;98602.06;;;15.18;68.09
23118;BME280;11728;50.624;6.014;2022-08-30T02:21:41;98605.16;;;15.06;68.58
23118;BME280;11728;50.624;6.014;2022-08-30T02:26:41;98604.59;;;14.97;68.71
23118;BME280;11728;50.624;6.014;2022-08-30T02:31:42;98613.88;;;14.85;69.35
23118;BME280;11728;50.624;6.014;2022-08-30T02:36:43;98601.78;;;14.77;69.91
23118;BME280;11728;50.624;6.014;2022-08-30T02:41:43;98597.31;;;14.77;69.93
23118;BME280;11728;50.624;6.014;2022-08-30T02:46:44;98588.34;;;14.80;70.00
23118;BME280;11728;50.624;6.014;2022-08-30T02:51:45;98583.50;;;14.92;69.60
23118;BME280;11728;50.624;6.014;2022-08-30T02:56:46;98587.41;;;15.07;69.32
23118;BME280;11728;50.624;6.014;2022-08-30T03:01:47;98585.16;;;15.19;68.89
23118;BME280;11728;50.624;6.014;2022-08-30T03:06:48;98584.06;;;15.26;68.71
23118;BME280;11728;50.624;6.014;2022-08-30T03:11:48;98568.97;;;15.27;68.85
23118;BME280;11728;50.624;6.014;2022-08-30T03:16:49;98572.75;;;15.20;69.09
23118;BME280;11728;50.624;6.014;2022-08-30T03:21:50;98572.97;;;15.14;69.38
23118;BME280;11728;50.624;6.014;2022-08-30T03:26:51;98578.69;;;15.02;69.84
23118;BME280;11728;50.624;6.014;2022-08-30T03:31:51;98574.66;;;14.92;70.44
23118;BME280;11728;50.624;6.014;2022-08-30T03:36:54;98574.00;;;14.85;70.61
23118;BME280;11728;50.624;6.014;2022-08-30T03:41:55;98569.59;;;14.84;70.74
23118;BME280;11728;50.624;6.014;2022-08-30T03:46:55;98568.66;;;14.85;70.81
23118;BME280;11728;50.624;6.014;2022-08-30T03:51:56;98580.00;;;14.90;71.24
23118;BME280;11728;50.624;6.014;2022-08-30T03:56:56;98576.28;;;14.96;70.65
23118;BME280;11728;50.624;6.014;2022-08-30T04:01:57;98582.09;;;15.07;70.04
23118;BME280;11728;50.624;6.014;2022-08-30T04:06:58;98578.47;;;15.08;69.49
23118;BME280;11728;50.624;6.014;2022-08-30T04:11:59;98576.88;;;15.04;69.65
23118;BME280;11728;50.624;6.014;2022-08-30T04:16:59;98588.59;;;14.98;69.93
23118;BME280;11728;50.624;6.014;2022-08-30T04:22:00;98579.09;;;14.91;70.65
23118;BME280;11728;50.624;6.014;2022-08-30T04:27:01;98589.50;;;14.97;70.68
23118;BME280;11728;50.624;6.014;2022-08-30T04:32:01;98588.34;;;15.06;70.94
23118;BME280;11728;50.624;6.014;2022-08-30T04:37:02;98600.75;;;15.05;70.81
23118;BME280;11728;50.624;6.014;2022-08-30T04:42:03;98604.06;;;15.12;70.53
23118;BME280;11728;50.624;6.014;2022-08-30T04:47:03;98604.16;;;15.09;70.77
23118;BME280;11728;50.624;6.014;2022-08-30T04:52:04;98608.09;;;14.99;71.54
23118;BME280;11728;50.624;6.014;2022-08-30T04:57:08;98608.34;;;14.91;72.04
23118;BME280;11728;50.624;6.014;2022-08-30T05:02:08;98611.16;;;14.87;72.02
23118;BME280;11728;50.624;6.014;2022-08-30T05:07:09;98613.22;;;14.79;72.38
23118;BME280;11728;50.624;6.014;2022-08-30T05:12:09;98608.00;;;14.76;72.34
23118;BME280;11728;50.624;6.014;2022-08-30T05:17:10;98609.84;;;14.74;71.94
23118;BME280;11728;50.624;6.014;2022-08-30T05:22:10;98616.91;;;14.75;72.91
23118;BME280;11728;50.624;6.014;2022-08-30T05:27:11;98616.88;;;15.01;71.72
23118;BME280;11728;50.624;6.014;2022-08-30T05:32:12;98608.56;;;15.10;70.80
23118;BME280;11728;50.624;6.014;2022-08-30T05:37:12;98619.94;;;15.15;69.88
23118;BME280;11728;50.624;6.014;2022-08-30T05:42:13;98617.31;;;15.13;69.73
23118;BME280;11728;50.624;6.014;2022-08-30T05:47:13;98627.59;;;15.24;69.27
23118;BME280;11728;50.624;6.014;2022-08-30T05:52:15;98623.47;;;15.39;68.56
23118;BME280;11728;50.624;6.014;2022-08-30T05:57:17;98615.06;;;15.51;68.18
23118;BME280;11728;50.624;6.014;2022-08-30T06:02:18;98612.94;;;15.59;67.94
23118;BME280;11728;50.624;6.014;2022-08-30T06:07:18;98621.66;;;15.64;67.68
23118;BME280;11728;50.624;6.014;2022-08-30T06:12:19;98618.41;;;15.79;67.46
23118;BME280;11728;50.624;6.014;2022-08-30T06:17:19;98618.16;;;15.85;67.85
23118;BME280;11728;50.624;6.014;2022-08-30T06:22:20;98612.22;;;16.66;66.72
23118;BME280;11728;50.624;6.014;2022-08-30T06:27:20;98610.69;;;17.79;63.25
23118;BME280;11728;50.624;6.014;2022-08-30T06:32:21;98608.00;;;18.88;59.75
23118;BME280;11728;50.624;6.014;2022-08-30T06:37:22;98612.81;;;20.14;55.63
23118;BME280;11728;50.624;6.014;2022-08-30T06:42:22;98605.25;;;21.27;52.44
23118;BME280;11728;50.624;6.014;2022-08-30T06:47:23;98595.66;;;22.08;50.18
23118;BME280;11728;50.624;6.014;2022-08-30T06:52:24;98599.69;;;22.69;49.01
23118;BME280;11728;50.624;6.014;2022-08-30T06:57:25;98599.78;;;22.67;48.63
23118;BME280;11728;50.624;6.014;2022-08-30T07:02:25;98606.31;;;22.90;48.09
23118;BME280;11728;50.624;6.014;2022-08-30T07:07:26;98605.44;;;22.77;48.91
23118;BME280;11728;50.624;6.014;2022-08-30T07:12:26;98599.63;;;23.60;47.88
23118;BME280;11728;50.624;6.014;2022-08-30T07:17:27;98600.09;;;24.65;46.06
23118;BME280;11728;50.624;6.014;2022-08-30T07:22:47;98604.47;;;25.59;44.36
23118;BME280;11728;50.624;6.014;2022-08-30T07:27:47;98600.69;;;26.40;42.77
23118;BME280;11728;50.624;6.014;2022-08-30T07:32:51;98595.75;;;27.09;41.14
23118;BME280;11728;50.624;6.014;2022-08-30T07:37:51;98591.44;;;27.58;40.24
23118;BME280;11728;50.624;6.014;2022-08-30T07:42:52;98591.13;;;28.12;39.25
23118;BME280;11728;50.624;6.014;2022-08-30T07:47:52;98596.44;;;28.44;38.32
23118;BME280;11728;50.624;6.014;2022-08-30T07:52:53;98595.75;;;29.00;37.12
23118;BME280;11728;50.624;6.014;2022-08-30T07:57:53;98595.50;;;29.31;36.80
23118;BME280;11728;50.624;6.014;2022-08-30T08:02:54;98593.94;;;30.31;35.57
23118;BME280;11728;50.624;6.014;2022-08-30T08:07:54;98599.59;;;30.83;34.78
23118;BME280;11728;50.624;6.014;2022-08-30T08:12:55;98598.44;;;31.47;33.25
23118;BME280;11728;50.624;6.014;2022-08-30T08:17:55;98601.63;;;32.12;32.55
23118;BME280;11728;50.624;6.014;2022-08-30T08:22:56;98600.31;;;32.83;31.41
23118;BME280;11728;50.624;6.014;2022-08-30T08:27:56;98592.13;;;33.40;30.45
23118;BME280;11728;50.624;6.014;2022-08-30T08:32:57;98590.31;;;34.12;29.21
23118;BME280;11728;50.624;6.014;2022-08-30T08:37:57;98586.63;;;34.59;27.40
23118;BME280;11728;50.624;6.014;2022-08-30T08:43:07;98583.47;;;35.17;27.02
23118;BME280;11728;50.624;6.014;2022-08-30T08:48:11;98578.53;;;35.65;26.33
23118;BME280;11728;50.624;6.014;2022-08-30T08:53:19;98580.41;;;36.23;25.16
23118;BME280;11728;50.624;6.014;2022-08-30T09:03:41;98583.50;;;36.57;24.10
23118;BME280;11728;50.624;6.014;2022-08-30T09:08:42;98582.81;;;34.68;25.60
23118;BME280;11728;50.624;6.014;2022-08-30T09:13:43;98588.44;;;35.43;24.37
23118;BME280;11728;50.624;6.014;2022-08-30T09:18:46;98583.13;;;35.42;23.61
23118;BME280;11728;50.624;6.014;2022-08-30T09:23:49;98571.81;;;35.82;22.99
23118;BME280;11728;50.624;6.014;2022-08-30T09:28:50;98585.13;;;36.15;22.22
23118;BME280;11728;50.624;6.014;2022-08-30T09:38:59;98585.94;;;36.01;22.03
23118;BME280;11728;50.624;6.014;2022-08-30T09:44:09;98580.53;;;36.59;21.43
23118;BME280;11728;50.624;6.014;2022-08-30T09:49:33;98573.66;;;36.26;21.61
23118;BME280;11728;50.624;6.014;2022-08-30T09:54:45;98571.56;;;36.28;21.69
23118;BME280;11728;50.624;6.014;2022-08-30T09:59:56;98573.13;;;35.71;22.30
23118;BME280;11728;50.624;6.014;2022-08-30T10:15:37;98567.34;;;36.54;21.12
23118;BME280;11728;50.624;6.014;2022-08-30T10:25:55;98552.53;;;36.70;21.36
23118;BME280;11728;50.624;6.014;2022-08-30T10:31:02;98550.66;;;37.76;20.39
23118;BME280;11728;50.624;6.014;2022-08-30T10:36:12;98546.94;;;38.38;19.86
23118;BME280;11728;50.624;6.014;2022-08-30T10:41:37;98547.47;;;38.00;19.73
23118;BME280;11728;50.624;6.014;2022-08-30T10:52:18;98534.84;;;38.66;19.72
23118;BME280;11728;50.624;6.014;2022-08-30T10:57:17;98545.97;;;39.26;19.71
23118;BME280;11728;50.624;6.014;2022-08-30T11:08:15;98539.34;;;37.50;20.56
23118;BME280;11728;50.624;6.014;2022-08-30T11:13:25;98531.38;;;38.58;20.32
23118;BME280;11728;50.624;6.014;2022-08-30T11:18:30;98539.19;;;39.35;19.36
23118;BME280;11728;50.624;6.014;2022-08-30T11:23:33;98538.88;;;39.83;18.54
23118;BME280;11728;50.624;6.014;2022-08-30T11:33:56;98530.59;;;40.22;18.62
23118;BME280;11728;50.624;6.014;2022-08-30T11:39:03;98533.31;;;39.64;18.66
23118;BME280;11728;50.624;6.014;2022-08-30T12:04:58;98502.03;;;40.41;18.25
23118;BME280;11728;50.624;6.014;2022-08-30T12:09:59;98503.75;;;37.76;19.95
23118;BME280;11728;50.624;6.014;2022-08-30T12:15:00;98503.50;;;36.08;21.37
23118;BME280;11728;50.624;6.014;2022-08-30T12:20:03;98510.88;;;37.29;20.44
23118;BME280;11728;50.624;6.014;2022-08-30T12:25:34;98496.09;;;38.60;19.56
23118;BME280;11728;50.624;6.014;2022-08-30T12:30:34;98493.44;;;39.39;18.73
23118;BME280;11728;50.624;6.014;2022-08-30T12:35:41;98482.88;;;39.81;18.67
23118;BME280;11728;50.624;6.014;2022-08-30T12:40:58;98492.22;;;39.67;18.46
23118;BME280;11728;50.624;6.014;2022-08-30T12:46:01;98477.34;;;40.07;18.61
23118;BME280;11728;50.624;6.014;2022-08-30T12:51:04;98475.63;;;38.88;19.10
23118;BME280;11728;50.624;6.014;2022-08-30T12:56:09;98474.81;;;37.45;20.41
23118;BME280;11728;50.624;6.014;2022-08-30T13:07:02;98471.06;;;39.28;18.86
23118;BME280;11728;50.624;6.014;2022-08-30T13:12:18;98469.97;;;38.22;19.67
23118;BME280;11728;50.624;6.014;2022-08-30T13:17:23;98463.84;;;36.31;21.16
23118;BME280;11728;50.624;6.014;2022-08-30T13:23:09;98468.97;;;35.01;22.40
23118;BME280;11728;50.624;6.014;2022-08-30T13:27:49;98464.25;;;35.77;22.23
23118;BME280;11728;50.624;6.014;2022-08-30T13:32:50;98460.06;;;35.44;22.72
23118;BME280;11728;50.624;6.014;2022-08-30T13:37:50;98452.09;;;36.22;21.77
23118;BME280;11728;50.624;6.014;2022-08-30T13:42:51;98451.44;;;37.41;20.98
23118;BME280;11728;50.624;6.014;2022-08-30T13:47:52;98447.13;;;38.41;20.00
23118;BME280;11728;50.624;6.014;2022-08-30T13:52:54;98446.41;;;37.99;20.33
23118;BME280;11728;50.624;6.014;2022-08-30T13:57:55;98440.41;;;37.41;20.83
23118;BME280;11728;50.624;6.014;2022-08-30T14:02:55;98441.84;;;37.37;20.62
23118;BME280;11728;50.624;6.014;2022-08-30T14:07:56;98444.81;;;37.35;20.74
23118;BME280;11728;50.624;6.014;2022-08-30T14:12:57;98439.28;;;37.14;20.64
23118;BME280;11728;50.624;6.014;2022-08-30T14:17:58;98448.50;;;37.07;20.95
23118;BME280;11728;50.624;6.014;2022-08-30T14:22:58;98437.44;;;36.51;21.15
23118;BME280;11728;50.624;6.014;2022-08-30T14:27:59;98436.78;;;36.84;21.16
23118;BME280;11728;50.624;6.014;2022-08-30T14:32:59;98433.19;;;36.48;21.24
23118;BME280;11728;50.624;6.014;2022-08-30T14:38:00;98434.38;;;36.31;21.72
23118;BME280;11728;50.624;6.014;2022-08-30T14:43:00;98434.38;;;35.59;22.42
23118;BME280;11728;50.624;6.014;2022-08-30T14:48:01;98429.16;;;34.75;23.31
23118;BME280;11728;50.624;6.014;2022-08-30T14:53:05;98428.06;;;34.53;23.30
23118;BME280;11728;50.624;6.014;2022-08-30T14:58:06;98420.78;;;33.84;23.70
23118;BME280;11728;50.624;6.014;2022-08-30T15:03:08;98413.31;;;33.54;24.48
23118;BME280;11728;50.624;6.014;2022-08-30T15:08:11;98398.25;;;32.94;25.25
23118;BME280;11728;50.624;6.014;2022-08-30T15:13:12;98408.44;;;32.53;25.60
23118;BME280;11728;50.624;6.014;2022-08-30T15:18:12;98410.72;;;32.16;25.93
23118;BME280;11728;50.624;6.014;2022-08-30T15:23:14;98407.72;;;31.68;26.67
23118;BME280;11728;50.624;6.014;2022-08-30T15:28:15;98391.97;;;31.37;27.14
23118;BME280;11728;50.624;6.014;2022-08-30T15:33:15;98396.66;;;31.44;27.61
23118;BME280;11728;50.624;6.014;2022-08-30T15:38:17;98389.34;;;31.27;27.84
23118;BME280;11728;50.624;6.014;2022-08-30T15:43:18;98403.25;;;30.99;28.85
23118;BME280;11728;50.624;6.014;2022-08-30T15:48:19;98392.00;;;30.77;28.94
23118;BME280;11728;50.624;6.014;2022-08-30T15:53:22;98393.44;;;30.89;29.30
23118;BME280;11728;50.624;6.014;2022-08-30T15:58:24;98402.13;;;30.67;29.58
23118;BME280;11728;50.624;6.014;2022-08-30T16:03:25;98398.63;;;30.30;30.39
23118;BME280;11728;50.624;6.014;2022-08-30T16:08:26;98399.22;;;30.07;30.89
23118;BME280;11728;50.624;6.014;2022-08-30T16:13:27;98397.88;;;29.84;31.29
23118;BME280;11728;50.624;6.014;2022-08-30T16:18:28;98405.47;;;29.54;32.08
23118;BME280;11728;50.624;6.014;2022-08-30T16:23:29;98405.84;;;29.13;32.73
23118;BME280;11728;50.624;6.014;2022-08-30T16:28:30;98401.69;;;28.99;33.43
23118;BME280;11728;50.624;6.014;2022-08-30T16:33:31;98412.19;;;28.94;33.19
23118;BME280;11728;50.624;6.014;2022-08-30T16:38:32;98405.03;;;28.84;33.92
23118;BME280;11728;50.624;6.014;2022-08-30T16:43:33;98411.00;;;28.69;35.22
23118;BME280;11728;50.624;6.014;2022-08-30T16:48:34;98405.00;;;28.46;35.22
23118;BME280;11728;50.624;6.014;2022-08-30T16:53:36;98402.06;;;28.19;35.93
23118;BME280;11728;50.624;6.014;2022-08-30T16:58:36;98405.91;;;28.07;36.16
23118;BME280;11728;50.624;6.014;2022-08-30T17:03:38;98406.03;;;27.97;36.16
23118;BME280;11728;50.624;6.014;2022-08-30T17:08:38;98415.25;;;27.75;36.78
23118;BME280;11728;50.624;6.014;2022-08-30T17:13:39;98413.63;;;27.63;37.08
23118;BME280;11728;50.624;6.014;2022-08-30T17:18:39;98416.09;;;27.46;37.10
23118;BME280;11728;50.624;6.014;2022-08-30T17:23:40;98421.63;;;27.44;37.05
23118;BME280;11728;50.624;6.014;2022-08-30T17:28:40;98421.69;;;27.24;37.63
23118;BME280;11728;50.624;6.014;2022-08-30T17:33:42;98430.69;;;27.04;37.90
23118;BME280;11728;50.624;6.014;2022-08-30T17:38:44;98434.47;;;26.81;38.21
23118;BME280;11728;50.624;6.014;2022-08-30T17:43:44;98442.47;;;26.62;38.57
23118;BME280;11728;50.624;6.014;2022-08-30T17:48:45;98451.53;;;26.41;39.14
23118;BME280;11728;50.624;6.014;2022-08-30T17:53:46;98451.03;;;26.25;39.08
23118;BME280;11728;50.624;6.014;2022-08-30T17:58:47;98463.53;;;26.06;39.63
23118;BME280;11728;50.624;6.014;2022-08-30T18:03:49;98458.63;;;25.89;40.00
23118;BME280;11728;50.624;6.014;2022-08-30T18:08:51;98464.91;;;25.78;40.04
23118;BME280;11728;50.624;6.014;2022-08-30T18:13:52;98469.66;;;25.64;40.57
23118;BME280;11728;50.624;6.014;2022-08-30T18:18:53;98471.16;;;25.46;40.59
23118;BME280;11728;50.624;6.014;2022-08-30T18:23:54;98485.75;;;25.33;41.06
23118;BME280;11728;50.624;6.014;2022-08-30T18:28:54;98504.66;;;25.22;41.26
23118;BME280;11728;50.624;6.014;2022-08-30T18:33:55;98502.31;;;25.17;41.28
23118;BME280;11728;50.624;6.014;2022-08-30T18:38:56;98496.84;;;25.06;41.48
23118;BME280;11728;50.624;6.014;2022-08-30T18:43:57;98503.69;;;24.99;41.60
23118;BME280;11728;50.624;6.014;2022-08-30T18:48:58;98509.59;;;24.93;41.80
23118;BME280;11728;50.624;6.014;2022-08-30T18:53:59;98519.13;;;24.86;41.70
23118;BME280;11728;50.624;6.014;2022-08-30T18:59:00;98518.09;;;24.77;42.26
23118;BME280;11728;50.624;6.014;2022-08-30T19:04:00;98519.03;;;24.65;43.00
23118;BME280;11728;50.624;6.014;2022-08-30T19:09:01;98530.13;;;24.49;43.60
23118;BME280;11728;50.624;6.014;2022-08-30T19:14:02;98528.19;;;24.39;43.91
23118;BME280;11728;50.624;6.014;2022-08-30T19:19:04;98535.91;;;24.20;44.82
23118;BME280;11728;50.624;6.014;2022-08-30T19:24:04;98538.47;;;23.98;46.51
23118;BME280;11728;50.624;6.014;2022-08-30T19:29:05;98525.94;;;23.60;48.74
23118;BME280;11728;50.624;6.014;2022-08-30T19:34:06;98524.97;;;23.36;50.40
23118;BME280;11728;50.624;6.014;2022-08-30T19:39:06;98534.47;;;23.29;51.17
23118;BME280;11728;50.624;6.014;2022-08-30T19:44:09;98537.47;;;23.12;51.06
23118;BME280;11728;50.624;6.014;2022-08-30T19:49:09;98541.88;;;23.13;51.66
23118;BME280;11728;50.624;6.014;2022-08-30T19:54:10;98544.00;;;23.08;51.51
23118;BME280;11728;50.624;6.014;2022-08-30T19:59:11;98548.94;;;23.02;51.32
23118;BME280;11728;50.624;6.014;2022-08-30T20:04:11;98553.88;;;22.95;51.72
23118;BME280;11728;50.624;6.014;2022-08-30T20:09:12;98570.34;;;22.91;51.98
23118;BME280;11728;50.624;6.014;2022-08-30T20:14:14;98568.94;;;22.85;51.86
23118;BME280;11728;50.624;6.014;2022-08-30T20:19:14;98577.53;;;22.78;52.06
23118;BME280;11728;50.624;6.014;2022-08-30T20:24:16;98584.41;;;22.69;52.53
23118;BME280;11728;50.624;6.014;2022-08-30T20:29:16;98589.25;;;22.77;52.22
23118;BME280;11728;50.624;6.014;2022-08-30T20:34:17;98587.47;;;22.90;52.20
23118;BME280;11728;50.624;6.014;2022-08-30T20:54:00;98563.00;;;22.54;51.96
23118;BME280;11728;50.624;6.014;2022-08-30T21:00:32;98554.19;;;22.38;52.23
23118;BME280;11728;50.624;6.014;2022-08-30T21:06:57;98555.56;;;22.31;52.12
23118;BME280;11728;50.624;6.014;2022-08-30T21:12:47;98561.41;;;22.24;52.56
23118;BME280;11728;50.624;6.014;2022-08-30T21:17:48;98567.50;;;22.13;53.04
23118;BME280;11728;50.624;6.014;2022-08-30T21:22:49;98562.97;;;22.00;53.46
23118;BME280;11728;50.624;6.014;2022-08-30T21:27:50;98563.09;;;21.98;53.47
23118;BME280;11728;50.624;6.014;2022-08-30T21:32:52;98565.41;;;21.90;53.81
23118;BME280;11728;50.624;6.014;2022-08-30T21:37:52;98560.59;;;21.81;54.04
23118;BME280;11728;50.624;6.014;2022-08-30T21:42:53;98561.94;;;21.74;54.09
23118;BME280;11728;50.624;6.014;2022-08-30T21:47:54;98567.59;;;21.70;54.03
23118;BME280;11728;50.624;6.014;2022-08-30T21:52:54;98573.47;;;21.76;53.70
23118;BME280;11728;50.624;6.014;2022-08-30T21:57:55;98580.38;;;21.80;53.17
23118;BME280;11728;50.624;6.014;2022-08-30T22:02:55;98588.38;;;21.82;53.33
23118;BME280;11728;50.624;6.014;2022-08-30T22:07:56;98579.13;;;21.86;53.21
23118;BME280;11728;50.624;6.014;2022-08-30T22:12:56;98583.06;;;21.80;53.23
23118;BME280;11728;50.624;6.014;2022-08-30T22:17:57;98579.59;;;21.65;53.77
23118;BME280;11728;50.624;6.014;2022-08-30T22:22:57;98577.25;;;21.45;54.60
23118;BME280;11728;50.624;6.014;2022-08-30T22:27:58;98566.59;;;21.29;55.49
23118;BME280;11728;50.624;6.014;2022-08-30T22:32:59;98575.47;;;21.16;55.89
23118;BME280;11728;50.624;6.014;2022-08-30T22:37:59;98571.38;;;20.95;57.20
23118;BME280;11728;50.624;6.014;2022-08-30T22:43:00;98576.88;;;20.78;58.32
23118;BME280;11728;50.624;6.014;2022-08-30T22:48:00;98584.31;;;20.73;58.74
23118;BME280;11728;50.624;6.014;2022-08-30T22:53:01;98577.38;;;20.69;59.00
23118;BME280;11728;50.624;6.014;2022-08-30T22:58:02;98582.16;;;20.64;59.51
23118;BME280;11728;50.624;6.014;2022-08-30T23:03:02;98580.78;;;20.57;59.99
23118;BME280;11728;50.624;6.014;2022-08-30T23:08:04;98576.31;;;20.42;61.10
23118;BME280;11728;50.624;6.014;2022-08-30T23:13:04;98577.88;;;20.31;61.97
23118;BME280;11728;50.624;6.014;2022-08-30T23:18:05;98571.44;;;20.33;61.90
23118;BME280;11728;50.624;6.014;2022-08-30T23:23:06;98577.34;;;20.24;62.41
23118;BME280;11728;50.624;6.014;2022-08-30T23:28:06;98581.50;;;20.14;63.09
23118;BME280;11728;50.624;6.014;2022-08-30T23:33:25;98584.00;;;20.02;63.45
23118;BME280;11728;50.624;6.014;2022-08-30T23:38:44;98577.31;;;19.94;63.81
23118;BME280;11728;50.624;6.014;2022-08-30T23:44:03;98579.75;;;19.98;63.11
23118;BME280;11728;50.624;6.014;2022-08-30T23:49:22;98569.75;;;20.02;62.69
23118;BME280;11728;50.624;6.014;2022-08-30T23:54:41;98573.13;;;20.05;62.04
